National Weather Service United States Department of Commerce

Sunday Brings Heat Relief For Some; Flash Flood Threat Along Cold Front

A cold front shifting across the Central Plains, Midwest, Great Lakes and Northeast on Sunday will bring some relief from the heat with cooler and drier air. Excessive heat holds Sunday roughly south of I-70. Heavy rain from thunderstorms along the front may bring flash flooding. Read More >


000
FTPA31 PHFO 210531
TAFSTU
TAF
NSTU 210531Z 2106/2206 36007KT P6SM FEW020 SCT100
FM220000 25006KT P6SM VCSH SCT020 SCT035 BKN100=


451
SAZS31 NSTU 210854
MTRPPG
METAR NSTU 210850Z VRB04KT 10SM FEW020 FEW100 26/24 A2984 RMK SLP105
8/170 T02610235 52012

METAR Formatted Surface Weather Observation  Issued: 07/20/2019 09:54:27 PM SST

NSTU Observation History

 

Significant Weather Charts